LRSBLOWK

Guest
Details From LRSB - SIBIU
To LOWK - Klagenfurt Woerthersee
Flight Number -
Tags decoded
Created
Modified
Stats Distance 471 nm / 873 km
Max Altitude 0 ft / 0 m
Waypoints 3
Social Downloads 0
Likes 0
Share VATSIM

Download

Looking for another format? Having issues loading an existing format? Contact us
Advertisement - Login to hide

Notes

Requested: LRSB AGNEP UZ924 VAL UL863 DIPSA DIPSA1A LOWK Unmatched points: AGNEP UZ924 UL863 DIPSA DIPSA1A

Route

LRSB VAL LOWK

ID Type Via Altitude Latitude Longitude Leg Dist Tot Dist Heading (true) Name
O LRSB APT - 0 ft / 0 m 45.78560˚ 24.09134˚ - 0 nm - SIBIU
VAL NDB - 0 ft / 0 m 44.32119˚ 19.87506˚ 199 nm 199 nm 245° / 242° VALJEVO NDB
O LOWK APT - 0 ft / 0 m 46.64285˚ 14.33117˚ 271 nm 471 nm 303° / 299° Klagenfurt Woerthersee

Altitude Profile

Advertisement - Login to hide

Weather


0- 5 10 15 20 25 30 35+ Temperature / ° C

Clouds and Precipitation
Forecast for 2017-12-15 00:00 UTC. Updated 8 minutes ago

Ground ~20,000 ft ~40,000 ft Winds

LRSB

Details ICAO LRSB (SBZ)
Name SIBIU
Region Romania
Timezone Europe/Bucharest (UTC+2.0)
Stats Elevation 1,496 ft / 456 m (AMSL)
Location 45.785596° 24.091341°
Runways 1
Magnetic Variation 5.460° E

METAR

LRSB 141900Z 00000KT 9999 SCT058 BKN075 04/03 Q1009

Decode

TAF

TAF LRSB 141700Z 1418/1518 VRB04KT 9999 BKN050 TEMPO 1421/1503 5000 -RA BKN015 OVC040 BECMG 1509/1511 15012KT

Decode

Departure Runways

ID Width Length Bearing (true) Bearing (mag) Surface Threshold Offset Overrun Length
09 98 ft / 30 m 6,500 ft / 1,981 m 91.07° 85.61° Concrete 0 ft / 0 m 0 ft / 0 m
27 98 ft / 30 m 6,500 ft / 1,981 m 271.09° 265.63° Concrete 492 ft / 150 m 0 ft / 0 m

LOWK

Details ICAO LOWK (KLU)
Name Klagenfurt Woerthersee
Region Austria
Timezone Europe/Vienna (UTC+1.0)
Stats Elevation 1,470 ft / 448 m (AMSL)
Location 46.642851° 14.331169°
Runways 2
Magnetic Variation 3.660° E

METAR

LOWK 141850Z 35003KT 330V030 6000 FEW004 SCT040 BKN060 01/01 Q1004 R10L/29//95 TEMPO 4000 BR

Decode

TAF

TAF AMD LOWK 141822Z 1418/1518 VRB02KT 9999 SCT040 BKN050 TX03/1515Z TNM01/1504Z TEMPO 1418/1422 2000 -SHRA BR SCT004 TEMPO 1422/1507 2500 FZBCFG TEMPO 1507/1518 -SHRASN

Decode

Destination Runways

ID Width Length Bearing (true) Bearing (mag) Surface Threshold Offset Overrun Length
10L 148 ft / 45 m 8,903 ft / 2,714 m 106.32° 102.66° Concrete 656 ft / 200 m 0 ft / 0 m
10R 89 ft / 27 m 2,329 ft / 710 m 106.42° 102.76° Grass 197 ft / 60 m 0 ft / 0 m
28L 89 ft / 27 m 2,329 ft / 710 m 286.43° 282.77° Grass 197 ft / 60 m 0 ft / 0 m
28R 148 ft / 45 m 8,903 ft / 2,714 m 286.34° 282.68° Concrete 0 ft / 0 m 0 ft / 0 m

Approach Navaids

Runway Type Ident Frequency Range Bearing (true) Bearing (mag) Slope Elevation
28R Localiser OEK 110.10 MHz 18 nm / 33 km 286.32° 282.66° - 1,470 ft / 448 m (AMSL)
28R Glidescope OEK 110.10 MHz 10 nm / 19 km 286.33° 282.67° 3.00° 1,479 ft / 451 m (AMSL)
28R DME OEK 110.10 MHz 18 nm / 33 km - - - 1,479 ft / 451 m (AMSL)

Popular Alternatives